Terminal Aerodrome Forecast
Issued by NWS

Current Version | Previous Version | Text Only | Print | Product List | Glossary On
Versions: 1 2 3 4 5 6 7 8 9 10 11 12 13 14 15 16 17 18 19 20 21 22 23 24
000
FTUS45 KTFX 271122
TAFCTB
TAF
KCTB 271122Z 2712/2812 08006KT 5SM -SN BR SCT015 OVC025
      TEMPO 2712/2716 2SM -SN BR BKN015
     FM271600 11007KT P6SM SCT025 BKN040
      TEMPO 2716/2720 BKN025
     FM272000 15008KT P6SM SCT040 BKN080
     FM280600 26015KT P6SM BKN120=

USA.gov is the U.S. government's official web portal to all federal, state and local government web resources and services.